sensor_id;sensor_type;location;lat;lon;timestamp;pressure;altitude;pressure_sealevel;temperature;humidity
59829;BME280;45708;51.848;107.620;2023-12-20T00:04:08;97461.19;;;-30.82;64.45
59829;BME280;45708;51.848;107.620;2023-12-20T00:09:09;97467.84;;;-30.81;64.56
59829;BME280;45708;51.848;107.620;2023-12-20T00:14:10;97479.22;;;-30.83;64.46
59829;BME280;45708;51.848;107.620;2023-12-20T00:19:10;97466.63;;;-30.87;64.55
59829;BME280;45708;51.848;107.620;2023-12-20T00:24:11;97488.63;;;-30.77;64.72
59829;BME280;45708;51.848;107.620;2023-12-20T00:29:12;97486.31;;;-30.74;64.46
59829;BME280;45708;51.848;107.620;2023-12-20T00:34:13;97461.69;;;-30.87;64.48
59829;BME280;45708;51.848;107.620;2023-12-20T00:39:14;97485.53;;;-30.73;64.27
59829;BME280;45708;51.848;107.620;2023-12-20T00:44:14;97471.75;;;-30.84;64.51
59829;BME280;45708;51.848;107.620;2023-12-20T00:49:15;97480.34;;;-30.78;64.39
59829;BME280;45708;51.848;107.620;2023-12-20T00:54:16;97496.44;;;-30.70;64.58
59829;BME280;45708;51.848;107.620;2023-12-20T00:59:17;97494.03;;;-30.68;64.46
59829;BME280;45708;51.848;107.620;2023-12-20T01:04:18;97499.13;;;-30.65;64.44
59829;BME280;45708;51.848;107.620;2023-12-20T01:09:19;97492.00;;;-30.61;64.54
59829;BME280;45708;51.848;107.620;2023-12-20T01:14:20;97497.53;;;-30.48;64.62
59829;BME280;45708;51.848;107.620;2023-12-20T01:19:20;97485.41;;;-30.44;64.57
59829;BME280;45708;51.848;107.620;2023-12-20T01:24:21;97498.53;;;-30.45;64.55
59829;BME280;45708;51.848;107.620;2023-12-20T01:29:22;97497.19;;;-30.40;64.56
59829;BME280;45708;51.848;107.620;2023-12-20T01:34:23;97495.78;;;-30.35;64.36
59829;BME280;45708;51.848;107.620;2023-12-20T01:39:24;97483.81;;;-30.27;64.56
59829;BME280;45708;51.848;107.620;2023-12-20T01:44:25;97488.69;;;-30.29;64.50
59829;BME280;45708;51.848;107.620;2023-12-20T01:49:26;97486.59;;;-30.37;64.27
59829;BME280;45708;51.848;107.620;2023-12-20T01:54:28;97468.88;;;-30.45;64.46
59829;BME280;45708;51.848;107.620;2023-12-20T01:59:29;97467.44;;;-30.41;64.40
59829;BME280;45708;51.848;107.620;2023-12-20T02:04:31;97483.66;;;-30.30;64.35
59829;BME280;45708;51.848;107.620;2023-12-20T02:09:33;97486.72;;;-30.19;64.40
59829;BME280;45708;51.848;107.620;2023-12-20T02:14:33;97470.00;;;-30.07;64.78
59829;BME280;45708;51.848;107.620;2023-12-20T02:19:34;97471.97;;;-29.84;64.61
59829;BME280;45708;51.848;107.620;2023-12-20T02:24:35;97482.03;;;-29.64;64.72
59829;BME280;45708;51.848;107.620;2023-12-20T02:29:36;97476.28;;;-29.47;64.56
59829;BME280;45708;51.848;107.620;2023-12-20T02:34:37;97468.72;;;-29.32;64.69
59829;BME280;45708;51.848;107.620;2023-12-20T02:39:38;97469.78;;;-28.93;64.87
59829;BME280;45708;51.848;107.620;2023-12-20T02:44:39;97477.97;;;-28.59;64.54
59829;BME280;45708;51.848;107.620;2023-12-20T02:49:39;97459.88;;;-28.19;64.89
59829;BME280;45708;51.848;107.620;2023-12-20T02:54:40;97424.56;;;-28.14;64.50
59829;BME280;45708;51.848;107.620;2023-12-20T02:59:41;97464.03;;;-27.62;64.69
59829;BME280;45708;51.848;107.620;2023-12-20T03:04:42;97464.84;;;-27.21;64.67
59829;BME280;45708;51.848;107.620;2023-12-20T03:09:43;97463.72;;;-26.86;64.83
59829;BME280;45708;51.848;107.620;2023-12-20T03:14:44;97454.59;;;-26.65;64.83
59829;BME280;45708;51.848;107.620;2023-12-20T03:19:45;97453.63;;;-26.47;64.74
59829;BME280;45708;51.848;107.620;2023-12-20T03:24:45;97445.91;;;-26.31;64.67
59829;BME280;45708;51.848;107.620;2023-12-20T03:29:46;97450.66;;;-26.15;64.72
59829;BME280;45708;51.848;107.620;2023-12-20T03:34:47;97454.75;;;-26.17;64.64
59829;BME280;45708;51.848;107.620;2023-12-20T03:39:48;97460.38;;;-25.99;64.46
59829;BME280;45708;51.848;107.620;2023-12-20T03:44:49;97446.22;;;-25.77;64.79
59829;BME280;45708;51.848;107.620;2023-12-20T03:49:49;97439.91;;;-25.66;64.51
59829;BME280;45708;51.848;107.620;2023-12-20T03:54:50;97446.91;;;-25.56;64.67
59829;BME280;45708;51.848;107.620;2023-12-20T03:59:51;97447.00;;;-25.29;64.44
59829;BME280;45708;51.848;107.620;2023-12-20T04:04:52;97436.50;;;-25.20;64.45
59829;BME280;45708;51.848;107.620;2023-12-20T04:09:52;97430.84;;;-25.15;64.43
59829;BME280;45708;51.848;107.620;2023-12-20T04:14:53;97436.44;;;-25.22;64.03
59829;BME280;45708;51.848;107.620;2023-12-20T04:19:54;97423.81;;;-25.01;64.37
59829;BME280;45708;51.848;107.620;2023-12-20T04:24:55;97427.13;;;-25.02;64.21
59829;BME280;45708;51.848;107.620;2023-12-20T04:29:56;97419.03;;;-24.93;64.41
59829;BME280;45708;51.848;107.620;2023-12-20T04:34:56;97422.22;;;-24.99;64.31
59829;BME280;45708;51.848;107.620;2023-12-20T04:39:57;97423.88;;;-24.98;63.87
59829;BME280;45708;51.848;107.620;2023-12-20T04:44:58;97427.88;;;-25.03;64.13
59829;BME280;45708;51.848;107.620;2023-12-20T04:49:59;97428.06;;;-24.97;63.89
59829;BME280;45708;51.848;107.620;2023-12-20T04:54:59;97419.34;;;-24.83;63.88
59829;BME280;45708;51.848;107.620;2023-12-20T05:00:00;97413.06;;;-24.43;63.44
59829;BME280;45708;51.848;107.620;2023-12-20T05:05:01;97407.66;;;-24.30;63.49
59829;BME280;45708;51.848;107.620;2023-12-20T05:10:03;97415.19;;;-24.28;63.48
59829;BME280;45708;51.848;107.620;2023-12-20T05:15:05;97416.50;;;-24.41;63.69
59829;BME280;45708;51.848;107.620;2023-12-20T05:20:07;97394.16;;;-24.63;63.67
59829;BME280;45708;51.848;107.620;2023-12-20T05:25:08;97389.75;;;-24.44;63.52
59829;BME280;45708;51.848;107.620;2023-12-20T05:30:09;97395.97;;;-24.31;63.28
59829;BME280;45708;51.848;107.620;2023-12-20T05:35:10;97378.25;;;-24.09;63.17
59829;BME280;45708;51.848;107.620;2023-12-20T05:40:11;97380.03;;;-24.05;62.92
59829;BME280;45708;51.848;107.620;2023-12-20T05:45:14;97372.09;;;-23.91;63.58
59829;BME280;45708;51.848;107.620;2023-12-20T05:50:16;97373.53;;;-23.99;63.44
59829;BME280;45708;51.848;107.620;2023-12-20T05:55:17;97364.72;;;-24.17;62.92
59829;BME280;45708;51.848;107.620;2023-12-20T06:00:18;97359.66;;;-24.20;62.38
59829;BME280;45708;51.848;107.620;2023-12-20T06:05:19;97368.06;;;-24.16;62.92
59829;BME280;45708;51.848;107.620;2023-12-20T06:10:20;97373.63;;;-24.25;62.92
59829;BME280;45708;51.848;107.620;2023-12-20T06:15:20;97363.56;;;-24.29;62.55
59829;BME280;45708;51.848;107.620;2023-12-20T06:20:21;97358.00;;;-24.19;61.94
59829;BME280;45708;51.848;107.620;2023-12-20T06:25:22;97345.84;;;-24.39;62.30
59829;BME280;45708;51.848;107.620;2023-12-20T06:30:23;97371.25;;;-24.22;62.21
59829;BME280;45708;51.848;107.620;2023-12-20T06:35:24;97372.19;;;-24.18;61.95
59829;BME280;45708;51.848;107.620;2023-12-20T06:40:25;97354.66;;;-24.20;62.22
59829;BME280;45708;51.848;107.620;2023-12-20T06:45:26;97349.81;;;-24.14;61.63
59829;BME280;45708;51.848;107.620;2023-12-20T06:50:27;97339.50;;;-24.24;62.39
59829;BME280;45708;51.848;107.620;2023-12-20T06:55:27;97356.69;;;-24.37;61.73
59829;BME280;45708;51.848;107.620;2023-12-20T07:00:28;97354.31;;;-24.32;61.53
59829;BME280;45708;51.848;107.620;2023-12-20T07:05:29;97351.72;;;-24.37;61.85
59829;BME280;45708;51.848;107.620;2023-12-20T07:10:30;97361.50;;;-24.43;61.74
59829;BME280;45708;51.848;107.620;2023-12-20T07:15:30;97349.25;;;-24.35;61.35
59829;BME280;45708;51.848;107.620;2023-12-20T07:20:32;97346.06;;;-24.29;61.67
59829;BME280;45708;51.848;107.620;2023-12-20T07:25:33;97352.00;;;-24.24;61.40
59829;BME280;45708;51.848;107.620;2023-12-20T07:30:34;97356.44;;;-24.16;61.50
59829;BME280;45708;51.848;107.620;2023-12-20T07:35:35;97355.34;;;-24.24;61.49
59829;BME280;45708;51.848;107.620;2023-12-20T07:40:35;97380.75;;;-24.40;61.16
59829;BME280;45708;51.848;107.620;2023-12-20T07:45:36;97377.44;;;-24.39;61.40
59829;BME280;45708;51.848;107.620;2023-12-20T07:50:37;97396.44;;;-24.43;61.38
59829;BME280;45708;51.848;107.620;2023-12-20T07:55:39;97402.84;;;-24.52;61.52
59829;BME280;45708;51.848;107.620;2023-12-20T08:00:39;97391.59;;;-24.67;61.15
59829;BME280;45708;51.848;107.620;2023-12-20T08:05:40;97392.13;;;-24.77;61.42
59829;BME280;45708;51.848;107.620;2023-12-20T08:10:41;97380.00;;;-24.91;61.35
59829;BME280;45708;51.848;107.620;2023-12-20T08:15:42;97381.16;;;-25.09;61.40
59829;BME280;45708;51.848;107.620;2023-12-20T08:20:46;97380.31;;;-25.09;61.00
59829;BME280;45708;51.848;107.620;2023-12-20T08:25:47;97390.69;;;-25.22;61.40
59829;BME280;45708;51.848;107.620;2023-12-20T08:30:48;97387.81;;;-25.35;61.21
59829;BME280;45708;51.848;107.620;2023-12-20T08:35:48;97363.88;;;-25.55;61.05
59829;BME280;45708;51.848;107.620;2023-12-20T08:40:49;97377.34;;;-25.50;61.21
59829;BME280;45708;51.848;107.620;2023-12-20T08:45:50;97392.00;;;-25.59;61.39
59829;BME280;45708;51.848;107.620;2023-12-20T08:50:51;97389.91;;;-25.72;61.09
59829;BME280;45708;51.848;107.620;2023-12-20T08:55:53;97392.25;;;-25.77;61.04
59829;BME280;45708;51.848;107.620;2023-12-20T09:00:56;97377.63;;;-25.92;60.82
59829;BME280;45708;51.848;107.620;2023-12-20T09:05:57;97400.72;;;-25.96;61.01
59829;BME280;45708;51.848;107.620;2023-12-20T09:10:57;97387.84;;;-26.08;60.96
59829;BME280;45708;51.848;107.620;2023-12-20T09:15:58;97392.59;;;-26.14;61.07
59829;BME280;45708;51.848;107.620;2023-12-20T09:20:59;97398.28;;;-26.18;61.14
59829;BME280;45708;51.848;107.620;2023-12-20T09:26:00;97415.50;;;-26.23;61.20
59829;BME280;45708;51.848;107.620;2023-12-20T09:31:01;97414.34;;;-26.32;61.12
59829;BME280;45708;51.848;107.620;2023-12-20T09:36:02;97413.50;;;-26.33;61.18
59829;BME280;45708;51.848;107.620;2023-12-20T09:41:03;97424.22;;;-26.35;61.20
59829;BME280;45708;51.848;107.620;2023-12-20T09:46:06;97428.13;;;-26.42;61.15
59829;BME280;45708;51.848;107.620;2023-12-20T09:51:07;97433.81;;;-26.44;61.50
59829;BME280;45708;51.848;107.620;2023-12-20T09:56:07;97441.06;;;-26.50;61.13
59829;BME280;45708;51.848;107.620;2023-12-20T10:01:08;97434.84;;;-26.62;61.01
59829;BME280;45708;51.848;107.620;2023-12-20T10:06:10;97441.63;;;-26.58;61.02
59829;BME280;45708;51.848;107.620;2023-12-20T10:11:12;97443.06;;;-26.63;61.19
59829;BME280;45708;51.848;107.620;2023-12-20T10:16:13;97437.88;;;-26.69;61.41
59829;BME280;45708;51.848;107.620;2023-12-20T10:21:13;97447.59;;;-26.75;61.39
59829;BME280;45708;51.848;107.620;2023-12-20T10:26:22;97442.63;;;-26.75;61.20
59829;BME280;45708;51.848;107.620;2023-12-20T10:31:33;97440.13;;;-26.75;61.11
59829;BME280;45708;51.848;107.620;2023-12-20T10:36:35;97440.97;;;-26.74;61.24
59829;BME280;45708;51.848;107.620;2023-12-20T10:41:37;97453.38;;;-26.76;61.29
59829;BME280;45708;51.848;107.620;2023-12-20T10:46:39;97450.75;;;-26.79;61.54
59829;BME280;45708;51.848;107.620;2023-12-20T10:51:42;97455.06;;;-26.75;61.22
59829;BME280;45708;51.848;107.620;2023-12-20T10:56:43;97454.88;;;-26.79;61.43
59829;BME280;45708;51.848;107.620;2023-12-20T11:01:44;97457.44;;;-26.78;61.50
59829;BME280;45708;51.848;107.620;2023-12-20T11:06:51;97458.09;;;-26.82;61.56
59829;BME280;45708;51.848;107.620;2023-12-20T11:12:13;97448.81;;;-26.86;61.45
59829;BME280;45708;51.848;107.620;2023-12-20T11:17:16;97460.03;;;-26.75;61.39
59829;BME280;45708;51.848;107.620;2023-12-20T11:22:17;97453.41;;;-26.74;61.46
59829;BME280;45708;51.848;107.620;2023-12-20T11:27:18;97454.28;;;-26.74;61.47
59829;BME280;45708;51.848;107.620;2023-12-20T11:37:30;97435.84;;;-26.79;61.50
59829;BME280;45708;51.848;107.620;2023-12-20T11:42:42;97430.38;;;-26.91;61.60
59829;BME280;45708;51.848;107.620;2023-12-20T11:47:45;97453.78;;;-26.86;61.83
59829;BME280;45708;51.848;107.620;2023-12-20T11:52:47;97431.97;;;-26.93;61.46
59829;BME280;45708;51.848;107.620;2023-12-20T11:57:48;97429.22;;;-27.01;61.95
59829;BME280;45708;51.848;107.620;2023-12-20T12:02:57;97431.75;;;-26.99;61.83
59829;BME280;45708;51.848;107.620;2023-12-20T12:07:59;97426.81;;;-26.98;61.77
59829;BME280;45708;51.848;107.620;2023-12-20T12:13:00;97415.00;;;-27.03;61.62
59829;BME280;45708;51.848;107.620;2023-12-20T12:18:01;97422.69;;;-26.97;61.58
59829;BME280;45708;51.848;107.620;2023-12-20T12:23:04;97416.47;;;-27.08;61.70
59829;BME280;45708;51.848;107.620;2023-12-20T12:28:05;97423.56;;;-27.18;61.72
59829;BME280;45708;51.848;107.620;2023-12-20T12:33:06;97423.69;;;-27.14;61.92
59829;BME280;45708;51.848;107.620;2023-12-20T12:38:07;97412.59;;;-27.23;61.79
59829;BME280;45708;51.848;107.620;2023-12-20T12:43:08;97400.72;;;-27.30;61.72
59829;BME280;45708;51.848;107.620;2023-12-20T12:48:10;97387.66;;;-27.45;61.83
59829;BME280;45708;51.848;107.620;2023-12-20T12:53:11;97413.69;;;-27.37;61.78
59829;BME280;45708;51.848;107.620;2023-12-20T12:58:12;97398.28;;;-27.49;61.94
59829;BME280;45708;51.848;107.620;2023-12-20T13:03:13;97413.84;;;-27.53;62.19
59829;BME280;45708;51.848;107.620;2023-12-20T13:08:14;97413.66;;;-27.58;62.03
59829;BME280;45708;51.848;107.620;2023-12-20T13:13:15;97402.63;;;-27.64;61.72
59829;BME280;45708;51.848;107.620;2023-12-20T13:18:19;97394.94;;;-27.70;62.03
59829;BME280;45708;51.848;107.620;2023-12-20T13:23:21;97399.66;;;-27.76;61.75
59829;BME280;45708;51.848;107.620;2023-12-20T13:28:24;97393.16;;;-27.94;61.74
59829;BME280;45708;51.848;107.620;2023-12-20T13:33:25;97386.50;;;-27.95;62.18
59829;BME280;45708;51.848;107.620;2023-12-20T13:38:26;97397.09;;;-27.99;61.85
59829;BME280;45708;51.848;107.620;2023-12-20T13:43:27;97394.31;;;-28.05;62.28
59829;BME280;45708;51.848;107.620;2023-12-20T13:48:28;97388.25;;;-28.12;62.33
59829;BME280;45708;51.848;107.620;2023-12-20T13:53:28;97393.69;;;-28.20;61.98
59829;BME280;45708;51.848;107.620;2023-12-20T13:58:29;97390.75;;;-28.31;62.34
59829;BME280;45708;51.848;107.620;2023-12-20T14:03:30;97396.50;;;-28.32;62.10
59829;BME280;45708;51.848;107.620;2023-12-20T14:08:31;97398.00;;;-28.35;62.22
59829;BME280;45708;51.848;107.620;2023-12-20T14:13:32;97391.94;;;-28.42;62.05
59829;BME280;45708;51.848;107.620;2023-12-20T14:18:32;97382.19;;;-28.57;61.98
59829;BME280;45708;51.848;107.620;2023-12-20T14:23:33;97381.66;;;-28.50;62.27
59829;BME280;45708;51.848;107.620;2023-12-20T14:28:34;97367.19;;;-28.60;62.06
59829;BME280;45708;51.848;107.620;2023-12-20T14:33:35;97377.94;;;-28.59;62.41
59829;BME280;45708;51.848;107.620;2023-12-20T14:38:36;97367.53;;;-28.70;62.22
59829;BME280;45708;51.848;107.620;2023-12-20T14:43:37;97300.06;;;-29.21;62.31
59829;BME280;45708;51.848;107.620;2023-12-20T14:48:38;97350.69;;;-28.96;62.21
59829;BME280;45708;51.848;107.620;2023-12-20T14:53:39;97355.91;;;-28.90;62.60
59829;BME280;45708;51.848;107.620;2023-12-20T14:58:40;97361.09;;;-28.84;62.40
59829;BME280;45708;51.848;107.620;2023-12-20T15:03:40;97358.88;;;-28.80;62.42
59829;BME280;45708;51.848;107.620;2023-12-20T15:08:41;97346.22;;;-28.86;62.50
59829;BME280;45708;51.848;107.620;2023-12-20T15:13:42;97363.59;;;-28.84;62.43
59829;BME280;45708;51.848;107.620;2023-12-20T15:18:43;97364.34;;;-29.05;62.28
59829;BME280;45708;51.848;107.620;2023-12-20T15:23:44;97363.88;;;-29.15;62.61
59829;BME280;45708;51.848;107.620;2023-12-20T15:28:45;97352.69;;;-29.25;62.29
59829;BME280;45708;51.848;107.620;2023-12-20T15:33:45;97363.03;;;-29.16;62.15
59829;BME280;45708;51.848;107.620;2023-12-20T15:38:46;97365.78;;;-29.10;62.49
59829;BME280;45708;51.848;107.620;2023-12-20T15:43:47;97358.78;;;-29.00;62.71
59829;BME280;45708;51.848;107.620;2023-12-20T15:48:48;97344.59;;;-29.03;62.78
59829;BME280;45708;51.848;107.620;2023-12-20T15:53:49;97350.84;;;-28.93;62.56
59829;BME280;45708;51.848;107.620;2023-12-20T15:58:50;97352.53;;;-28.92;62.50
59829;BME280;45708;51.848;107.620;2023-12-20T16:03:51;97346.41;;;-29.00;62.23
59829;BME280;45708;51.848;107.620;2023-12-20T16:08:51;97359.56;;;-29.01;62.65
59829;BME280;45708;51.848;107.620;2023-12-20T16:13:52;97353.97;;;-29.15;62.68
59829;BME280;45708;51.848;107.620;2023-12-20T16:18:53;97346.00;;;-29.45;62.51
59829;BME280;45708;51.848;107.620;2023-12-20T16:23:54;97312.66;;;-29.70;62.46
59829;BME280;45708;51.848;107.620;2023-12-20T16:28:55;97366.28;;;-29.52;62.35
59829;BME280;45708;51.848;107.620;2023-12-20T16:33:55;97367.56;;;-29.60;62.42
59829;BME280;45708;51.848;107.620;2023-12-20T16:38:56;97362.16;;;-29.70;62.74
59829;BME280;45708;51.848;107.620;2023-12-20T16:43:57;97347.94;;;-29.74;62.47
59829;BME280;45708;51.848;107.620;2023-12-20T16:48:58;97351.56;;;-29.67;62.65
59829;BME280;45708;51.848;107.620;2023-12-20T16:53:59;97354.53;;;-29.74;62.47
59829;BME280;45708;51.848;107.620;2023-12-20T16:59:00;97368.38;;;-29.78;62.59
59829;BME280;45708;51.848;107.620;2023-12-20T17:04:01;97373.00;;;-29.84;62.68
59829;BME280;45708;51.848;107.620;2023-12-20T17:09:02;97307.13;;;-30.17;62.47
59829;BME280;45708;51.848;107.620;2023-12-20T17:14:03;97354.81;;;-29.68;62.84
59829;BME280;45708;51.848;107.620;2023-12-20T17:19:04;97353.63;;;-29.58;62.45
59829;BME280;45708;51.848;107.620;2023-12-20T17:24:05;97359.66;;;-29.53;62.50
59829;BME280;45708;51.848;107.620;2023-12-20T17:29:06;97362.31;;;-29.67;62.44
59829;BME280;45708;51.848;107.620;2023-12-20T17:34:06;97338.59;;;-29.97;62.56
59829;BME280;45708;51.848;107.620;2023-12-20T17:39:07;97340.91;;;-30.00;62.50
59829;BME280;45708;51.848;107.620;2023-12-20T17:44:09;97345.03;;;-29.83;63.00
59829;BME280;45708;51.848;107.620;2023-12-20T17:49:10;97335.63;;;-29.90;62.84
59829;BME280;45708;51.848;107.620;2023-12-20T17:54:10;97334.69;;;-30.10;62.64
59829;BME280;45708;51.848;107.620;2023-12-20T17:59:14;97348.34;;;-30.00;62.63
59829;BME280;45708;51.848;107.620;2023-12-20T18:04:15;97354.06;;;-30.01;62.68
59829;BME280;45708;51.848;107.620;2023-12-20T18:09:15;97348.81;;;-30.07;62.73
59829;BME280;45708;51.848;107.620;2023-12-20T18:14:16;97366.91;;;-30.08;62.83
59829;BME280;45708;51.848;107.620;2023-12-20T18:19:17;97345.13;;;-30.15;62.69
59829;BME280;45708;51.848;107.620;2023-12-20T18:24:18;97358.06;;;-30.03;62.74
59829;BME280;45708;51.848;107.620;2023-12-20T18:29:19;97369.53;;;-29.87;62.78
59829;BME280;45708;51.848;107.620;2023-12-20T18:34:19;97363.91;;;-29.85;62.72
59829;BME280;45708;51.848;107.620;2023-12-20T18:39:20;97369.38;;;-29.74;62.70
59829;BME280;45708;51.848;107.620;2023-12-20T18:44:21;97367.75;;;-29.74;63.24
59829;BME280;45708;51.848;107.620;2023-12-20T18:49:22;97370.38;;;-29.71;62.62
59829;BME280;45708;51.848;107.620;2023-12-20T18:54:23;97358.47;;;-29.78;62.93
59829;BME280;45708;51.848;107.620;2023-12-20T18:59:27;97373.63;;;-29.72;62.78
59829;BME280;45708;51.848;107.620;2023-12-20T19:04:28;97374.19;;;-29.77;62.89
59829;BME280;45708;51.848;107.620;2023-12-20T19:09:29;97374.72;;;-29.83;62.64
59829;BME280;45708;51.848;107.620;2023-12-20T19:14:29;97372.88;;;-29.87;63.01
59829;BME280;45708;51.848;107.620;2023-12-20T19:19:30;97371.88;;;-29.90;62.90
59829;BME280;45708;51.848;107.620;2023-12-20T19:24:31;97367.78;;;-29.90;62.69
59829;BME280;45708;51.848;107.620;2023-12-20T19:29:32;97354.63;;;-29.89;63.04
59829;BME280;45708;51.848;107.620;2023-12-20T19:34:33;97359.34;;;-29.93;62.80
59829;BME280;45708;51.848;107.620;2023-12-20T19:39:33;97352.22;;;-29.87;63.05
59829;BME280;45708;51.848;107.620;2023-12-20T19:44:34;97357.88;;;-29.90;62.81
59829;BME280;45708;51.848;107.620;2023-12-20T19:49:35;97346.44;;;-29.88;62.79
59829;BME280;45708;51.848;107.620;2023-12-20T19:54:36;97336.41;;;-29.91;63.08
59829;BME280;45708;51.848;107.620;2023-12-20T19:59:37;97341.75;;;-30.00;62.92
59829;BME280;45708;51.848;107.620;2023-12-20T20:04:38;97341.25;;;-30.10;62.82
59829;BME280;45708;51.848;107.620;2023-12-20T20:09:39;97355.31;;;-30.09;62.95
59829;BME280;45708;51.848;107.620;2023-12-20T20:14:39;97345.41;;;-30.09;62.83
59829;BME280;45708;51.848;107.620;2023-12-20T20:19:40;97346.06;;;-30.13;63.00
59829;BME280;45708;51.848;107.620;2023-12-20T20:24:41;97366.75;;;-30.11;62.90
59829;BME280;45708;51.848;107.620;2023-12-20T20:29:42;97358.28;;;-30.16;62.65
59829;BME280;45708;51.848;107.620;2023-12-20T20:34:43;97364.91;;;-30.15;63.11
59829;BME280;45708;51.848;107.620;2023-12-20T20:39:44;97359.50;;;-30.24;62.80
59829;BME280;45708;51.848;107.620;2023-12-20T20:44:45;97367.47;;;-30.30;62.83
59829;BME280;45708;51.848;107.620;2023-12-20T20:49:46;97361.81;;;-30.44;62.71
59829;BME280;45708;51.848;107.620;2023-12-20T20:54:47;97368.00;;;-30.52;62.88
59829;BME280;45708;51.848;107.620;2023-12-20T20:59:47;97356.94;;;-30.60;62.89
59829;BME280;45708;51.848;107.620;2023-12-20T21:04:48;97358.97;;;-30.68;62.96
59829;BME280;45708;51.848;107.620;2023-12-20T21:09:49;97253.59;;;-31.32;62.77
59829;BME280;45708;51.848;107.620;2023-12-20T21:14:50;97359.41;;;-30.60;63.11
59829;BME280;45708;51.848;107.620;2023-12-20T21:19:51;97357.69;;;-30.61;63.04
59829;BME280;45708;51.848;107.620;2023-12-20T21:24:51;97345.47;;;-30.74;63.05
59829;BME280;45708;51.848;107.620;2023-12-20T21:29:52;97347.25;;;-30.72;62.81
59829;BME280;45708;51.848;107.620;2023-12-20T21:34:53;97352.56;;;-30.64;62.95
59829;BME280;45708;51.848;107.620;2023-12-20T21:39:54;97356.56;;;-30.50;62.84
59829;BME280;45708;51.848;107.620;2023-12-20T21:44:55;97353.31;;;-30.49;62.96
59829;BME280;45708;51.848;107.620;2023-12-20T21:49:55;97356.81;;;-30.45;62.69
59829;BME280;45708;51.848;107.620;2023-12-20T21:54:56;97356.72;;;-30.47;62.89
59829;BME280;45708;51.848;107.620;2023-12-20T21:59:57;97340.06;;;-30.67;62.79
59829;BME280;45708;51.848;107.620;2023-12-20T22:04:58;97361.88;;;-30.60;62.92
59829;BME280;45708;51.848;107.620;2023-12-20T22:09:58;97360.16;;;-30.61;62.63
59829;BME280;45708;51.848;107.620;2023-12-20T22:14:59;97354.88;;;-30.51;63.01
59829;BME280;45708;51.848;107.620;2023-12-20T22:20:00;97334.03;;;-30.56;62.84
59829;BME280;45708;51.848;107.620;2023-12-20T22:25:01;97346.84;;;-30.47;63.04
59829;BME280;45708;51.848;107.620;2023-12-20T22:30:02;97350.00;;;-30.49;63.04
59829;BME280;45708;51.848;107.620;2023-12-20T22:35:04;97337.34;;;-30.55;62.80
59829;BME280;45708;51.848;107.620;2023-12-20T22:40:06;97340.66;;;-30.55;62.95
59829;BME280;45708;51.848;107.620;2023-12-20T22:45:07;97326.63;;;-30.56;62.94
59829;BME280;45708;51.848;107.620;2023-12-20T22:50:09;97341.44;;;-30.56;62.88
59829;BME280;45708;51.848;107.620;2023-12-20T22:55:10;97340.38;;;-30.77;62.94
59829;BME280;45708;51.848;107.620;2023-12-20T23:00:11;97341.09;;;-30.80;62.65
59829;BME280;45708;51.848;107.620;2023-12-20T23:05:12;97341.00;;;-30.81;62.87
59829;BME280;45708;51.848;107.620;2023-12-20T23:10:12;97327.16;;;-30.94;62.76
59829;BME280;45708;51.848;107.620;2023-12-20T23:15:13;97341.78;;;-30.82;62.79
59829;BME280;45708;51.848;107.620;2023-12-20T23:20:14;97335.09;;;-30.83;63.00
59829;BME280;45708;51.848;107.620;2023-12-20T23:25:15;97330.00;;;-30.86;63.00
59829;BME280;45708;51.848;107.620;2023-12-20T23:30:16;97297.72;;;-31.06;62.74
59829;BME280;45708;51.848;107.620;2023-12-20T23:35:17;97329.94;;;-30.88;62.85
59829;BME280;45708;51.848;107.620;2023-12-20T23:40:18;97325.84;;;-30.87;63.04
59829;BME280;45708;51.848;107.620;2023-12-20T23:45:19;97324.16;;;-30.88;63.17
59829;BME280;45708;51.848;107.620;2023-12-20T23:50:20;97331.13;;;-30.81;63.04
59829;BME280;45708;51.848;107.620;2023-12-20T23:55:20;97337.84;;;-30.79;62.91
